createdAt,value
2019-01-30T00:01:10.806Z,98630.95
2019-01-30T00:03:40.295Z,98615.20
2019-01-30T00:06:09.750Z,98608.95
2019-01-30T00:08:39.267Z,98600.56
2019-01-30T00:11:08.807Z,98606.81
2019-01-30T00:13:38.408Z,98589.45
2019-01-30T00:16:08.156Z,98588.91
2019-01-30T00:18:37.617Z,98588.67
2019-01-30T00:21:07.179Z,98578.92
2019-01-30T00:23:36.653Z,98572.35
2019-01-30T00:26:06.523Z,98577.56
2019-01-30T00:28:35.976Z,98569.17
2019-01-30T00:31:05.797Z,98562.14
2019-01-30T00:33:35.270Z,98573.02
2019-01-30T00:36:04.986Z,98564.86
2019-01-30T00:38:34.530Z,98566.22
2019-01-30T00:41:04.054Z,98557.48
2019-01-30T00:43:33.564Z,98562.37
2019-01-30T00:46:03.103Z,98556.34
2019-01-30T00:48:32.565Z,98554.44
2019-01-30T00:51:02.054Z,98553.08
2019-01-30T00:53:31.549Z,98551.38
2019-01-30T00:56:01.102Z,98553.77
2019-01-30T00:58:30.677Z,98554.91
2019-01-30T01:01:00.204Z,98550.24
2019-01-30T01:03:29.737Z,98553.55
2019-01-30T01:05:59.296Z,98552.96
2019-01-30T01:08:29.106Z,98550.02
2019-01-30T01:10:58.637Z,98545.15
2019-01-30T01:13:28.128Z,98543.33
2019-01-30T01:15:57.710Z,98547.95
2019-01-30T01:18:27.205Z,98533.34
2019-01-30T01:20:56.721Z,98533.12
2019-01-30T01:23:26.344Z,98526.63
2019-01-30T01:25:55.884Z,98527.44
2019-01-30T01:28:25.369Z,98517.70
2019-01-30T01:30:54.857Z,98510.90
2019-01-30T01:33:25.950Z,98513.39
2019-01-30T01:35:55.517Z,98509.63
2019-01-30T01:38:25.035Z,98503.64
2019-01-30T01:40:54.596Z,98510.20
2019-01-30T01:43:24.062Z,98502.05
2019-01-30T01:45:53.562Z,98495.02
2019-01-30T01:48:23.058Z,98499.33
2019-01-30T01:50:52.608Z,98487.31
2019-01-30T01:53:22.141Z,98490.59
2019-01-30T01:55:51.701Z,98484.37
2019-01-30T01:58:21.178Z,98475.08
2019-01-30T02:00:50.841Z,98467.70
2019-01-30T02:03:20.314Z,98468.52
2019-01-30T02:05:49.762Z,98457.86
2019-01-30T02:08:19.334Z,98455.92
2019-01-30T02:10:48.859Z,98447.21
2019-01-30T02:13:18.359Z,98440.41
2019-01-30T02:15:47.847Z,98442.00
2019-01-30T02:18:17.333Z,98441.19
2019-01-30T02:20:46.789Z,98422.16
2019-01-30T02:23:16.267Z,98427.59
2019-01-30T02:25:45.797Z,98420.70
2019-01-30T02:28:15.283Z,98412.77
2019-01-30T02:30:47.507Z,98410.05
2019-01-30T02:33:16.025Z,98408.70
2019-01-30T02:35:45.587Z,98401.89
2019-01-30T02:38:15.072Z,98397.00
2019-01-30T02:40:44.563Z,98394.28
2019-01-30T02:43:14.054Z,98397.81
2019-01-30T02:45:43.505Z,98393.73
2019-01-30T02:48:13.010Z,98389.43
2019-01-30T02:50:42.461Z,98391.69
2019-01-30T02:53:11.961Z,98383.30
2019-01-30T02:55:41.411Z,98380.13
2019-01-30T02:58:10.935Z,98377.73
2019-01-30T03:00:40.423Z,98372.18
2019-01-30T03:03:09.879Z,98372.27
2019-01-30T03:05:39.439Z,98372.95
2019-01-30T03:08:08.999Z,98372.49
2019-01-30T03:10:38.612Z,98369.89
2019-01-30T03:13:08.068Z,98372.35
2019-01-30T03:15:37.558Z,98362.16
2019-01-30T03:18:07.080Z,98362.82
2019-01-30T03:20:36.695Z,98356.92
2019-01-30T03:23:06.318Z,98349.67
2019-01-30T03:25:35.815Z,98347.86
2019-01-30T03:28:05.437Z,98344.68
2019-01-30T03:30:35.030Z,98344.22
2019-01-30T03:33:04.650Z,98336.52
2019-01-30T03:35:34.238Z,98334.94
2019-01-30T03:38:03.649Z,98332.45
2019-01-30T03:40:33.208Z,98328.59
2019-01-30T03:43:02.663Z,98323.16
2019-01-30T03:45:32.141Z,98326.11
2019-01-30T03:48:01.616Z,98325.44
2019-01-30T03:50:31.092Z,98325.66
2019-01-30T03:53:00.557Z,98319.09
2019-01-30T03:55:30.031Z,98323.86
2019-01-30T03:57:59.568Z,98326.13
2019-01-30T04:00:29.120Z,98315.61
2019-01-30T04:02:58.575Z,98315.97
2019-01-30T04:05:28.057Z,98316.43
2019-01-30T04:07:57.515Z,98309.86
2019-01-30T04:10:27.069Z,98317.34
2019-01-30T04:12:56.575Z,98310.77
2019-01-30T04:15:26.102Z,98311.45
2019-01-30T04:17:55.649Z,98309.97
2019-01-30T04:20:25.173Z,98309.42
2019-01-30T04:22:54.663Z,98322.11
2019-01-30T04:25:24.185Z,98318.27
2019-01-30T04:27:53.660Z,98315.77
2019-01-30T04:30:25.662Z,98315.54
2019-01-30T04:32:55.203Z,98306.48
2019-01-30T04:35:24.671Z,98311.69
2019-01-30T04:37:54.149Z,98303.75
2019-01-30T04:40:23.721Z,98307.84
2019-01-30T04:42:53.214Z,98302.63
2019-01-30T04:45:26.429Z,98301.36
2019-01-30T04:47:55.920Z,98298.41
2019-01-30T04:50:25.390Z,98295.02
2019-01-30T04:52:54.841Z,98296.14
2019-01-30T04:55:24.331Z,98299.45
2019-01-30T04:57:53.956Z,98298.09
2019-01-30T05:00:25.430Z,98299.22
2019-01-30T05:02:55.084Z,98294.91
2019-01-30T05:05:24.613Z,98290.83
2019-01-30T05:07:54.264Z,98287.66
2019-01-30T05:10:23.752Z,98289.02
2019-01-30T05:12:53.306Z,98292.29
2019-01-30T05:15:22.761Z,98292.41
2019-01-30T05:17:52.253Z,98289.70
2019-01-30T05:20:22.289Z,98288.11
2019-01-30T05:22:51.874Z,98287.66
2019-01-30T05:25:21.480Z,98291.95
2019-01-30T05:27:50.943Z,98295.45
2019-01-30T05:30:29.942Z,98288.66
2019-01-30T05:32:59.492Z,98297.85
2019-01-30T05:35:29.036Z,98298.63
2019-01-30T05:37:58.587Z,98294.00
2019-01-30T05:40:28.227Z,98297.73
2019-01-30T05:42:57.792Z,98291.73
2019-01-30T05:45:27.250Z,98292.52
2019-01-30T05:47:56.710Z,98297.95
2019-01-30T05:50:26.214Z,98301.25
2019-01-30T05:52:55.767Z,98301.48
2019-01-30T05:55:25.335Z,98295.81
2019-01-30T05:57:54.812Z,98297.95
2019-01-30T06:00:33.347Z,98296.05
2019-01-30T06:03:02.902Z,98301.48
2019-01-30T06:05:32.515Z,98293.55
2019-01-30T06:08:01.977Z,98291.06
2019-01-30T06:10:31.473Z,98294.46
2019-01-30T06:13:00.994Z,98293.09
2019-01-30T06:15:30.563Z,98297.18
2019-01-30T06:18:00.034Z,98296.95
2019-01-30T06:20:30.303Z,98294.23
2019-01-30T06:23:01.857Z,98286.08
2019-01-30T06:25:31.567Z,98282.55
2019-01-30T06:28:01.046Z,98286.17
2019-01-30T06:30:30.598Z,98287.30
2019-01-30T06:33:00.222Z,98281.09
2019-01-30T06:35:29.820Z,98276.78
2019-01-30T06:37:59.313Z,98281.09
2019-01-30T06:40:32.007Z,98282.67
2019-01-30T06:43:02.879Z,98279.83
2019-01-30T06:45:32.487Z,98267.27
2019-01-30T06:48:02.020Z,98269.30
2019-01-30T06:50:31.656Z,98260.56
2019-01-30T06:53:01.126Z,98267.04
2019-01-30T06:55:30.617Z,98259.56
2019-01-30T06:58:00.074Z,98265.45
2019-01-30T07:00:29.706Z,98267.81
2019-01-30T07:02:59.398Z,98267.04
2019-01-30T07:05:29.034Z,98261.02
2019-01-30T07:07:58.618Z,98271.57
2019-01-30T07:10:28.714Z,98274.74
2019-01-30T07:12:58.283Z,98268.17
2019-01-30T07:15:27.851Z,98267.62
2019-01-30T07:17:57.392Z,98271.70
2019-01-30T07:20:26.962Z,98273.39
2019-01-30T07:22:56.599Z,98267.27
2019-01-30T07:25:26.131Z,98265.00
2019-01-30T07:27:55.625Z,98261.60
2019-01-30T07:30:31.303Z,98261.47
2019-01-30T07:33:00.883Z,98248.91
2019-01-30T07:35:30.516Z,98253.22
2019-01-30T07:37:59.983Z,98249.36
2019-01-30T07:40:29.463Z,98252.98
2019-01-30T07:42:59.016Z,98252.27
2019-01-30T07:45:29.505Z,98249.09
2019-01-30T07:47:59.126Z,98246.16
2019-01-30T07:50:28.790Z,98251.14
2019-01-30T07:52:58.970Z,98253.85
2019-01-30T07:55:28.725Z,98245.70
2019-01-30T07:57:58.338Z,98248.77
2019-01-30T08:00:30.441Z,98250.13
2019-01-30T08:03:00.000Z,98247.96
2019-01-30T08:05:29.491Z,98253.85
2019-01-30T08:07:59.082Z,98250.36
2019-01-30T08:10:28.713Z,98247.64
2019-01-30T08:12:58.392Z,98251.59
2019-01-30T08:15:28.217Z,98245.02
2019-01-30T08:17:57.684Z,98252.62
2019-01-30T08:20:27.151Z,98240.63
2019-01-30T08:22:56.924Z,98250.01
2019-01-30T08:25:26.432Z,98246.41
2019-01-30T08:27:56.276Z,98233.59
2019-01-30T08:30:28.793Z,98236.77
2019-01-30T08:33:04.585Z,98240.75
2019-01-30T08:35:32.024Z,98235.77
2019-01-30T08:38:01.545Z,98241.89
2019-01-30T08:40:31.184Z,98243.47
2019-01-30T08:43:00.781Z,98245.96
2019-01-30T08:45:31.115Z,98243.25
2019-01-30T08:48:00.635Z,98247.78
2019-01-30T08:50:30.627Z,98253.90
2019-01-30T08:53:00.337Z,98246.64
2019-01-30T08:55:29.968Z,98244.60
2019-01-30T08:57:59.605Z,98244.47
2019-01-30T09:00:30.359Z,98252.53
2019-01-30T09:02:59.916Z,98250.36
2019-01-30T09:05:29.445Z,98245.41
2019-01-30T09:07:58.957Z,98245.50
2019-01-30T09:10:29.810Z,98251.62
2019-01-30T09:12:59.660Z,98252.30
2019-01-30T09:15:30.855Z,98251.61
2019-01-30T09:18:00.470Z,98248.20
2019-01-30T09:20:30.100Z,98247.88
2019-01-30T09:22:59.554Z,98252.06
2019-01-30T09:25:31.263Z,98253.87
2019-01-30T09:28:02.455Z,98247.74
2019-01-30T09:30:39.157Z,98256.61
2019-01-30T09:33:10.449Z,98248.31
2019-01-30T09:35:39.994Z,98257.96
2019-01-30T09:38:09.767Z,98262.72
2019-01-30T09:40:39.184Z,98258.50
2019-01-30T09:43:08.748Z,98250.92
2019-01-30T09:45:38.265Z,98266.67
2019-01-30T09:48:08.240Z,98262.26
2019-01-30T09:50:37.802Z,98264.63
2019-01-30T09:53:08.122Z,98267.02
2019-01-30T09:55:37.646Z,98257.58
2019-01-30T09:58:07.224Z,98272.22
2019-01-30T10:00:40.165Z,98264.84
2019-01-30T10:03:09.657Z,98266.42
2019-01-30T10:05:39.116Z,98271.98
2019-01-30T10:08:08.851Z,98273.23
2019-01-30T10:10:42.049Z,98278.77
2019-01-30T10:13:11.992Z,98271.97
2019-01-30T10:15:46.448Z,98269.47
2019-01-30T10:18:16.250Z,98272.09
2019-01-30T10:20:47.757Z,98266.87
2019-01-30T10:23:17.349Z,98275.48
2019-01-30T10:25:46.900Z,98264.23
2019-01-30T10:28:17.214Z,98268.98
2019-01-30T10:30:48.188Z,98268.75
2019-01-30T10:33:17.756Z,98273.72
2019-01-30T10:35:47.494Z,98267.58
2019-01-30T10:38:17.100Z,98272.15
2019-01-30T10:40:46.657Z,98267.84
2019-01-30T10:43:16.567Z,98275.32
2019-01-30T10:45:46.108Z,98271.09
2019-01-30T10:48:15.570Z,98276.08
2019-01-30T10:50:45.133Z,98275.16
2019-01-30T10:53:14.728Z,98276.41
2019-01-30T10:55:44.299Z,98274.47
2019-01-30T10:58:16.185Z,98275.72
2019-01-30T11:00:49.199Z,98271.94
2019-01-30T11:03:19.217Z,98273.64
2019-01-30T11:05:48.942Z,98264.80
2019-01-30T11:08:18.491Z,98281.20
2019-01-30T11:10:50.649Z,98277.64
2019-01-30T11:13:19.257Z,98272.73
2019-01-30T11:15:48.731Z,98266.23
2019-01-30T11:18:18.439Z,98264.64
2019-01-30T11:20:47.992Z,98270.05
2019-01-30T11:23:17.489Z,98269.80
2019-01-30T11:25:49.167Z,98263.86
2019-01-30T11:28:18.726Z,98266.11
2019-01-30T11:30:48.433Z,98272.56
2019-01-30T11:33:18.082Z,98266.18
2019-01-30T11:35:47.675Z,98269.34
2019-01-30T11:38:17.185Z,98270.81
2019-01-30T11:40:46.630Z,98271.70
2019-01-30T11:43:16.240Z,98270.22
2019-01-30T11:45:46.369Z,98269.30
2019-01-30T11:48:15.910Z,98273.23
2019-01-30T11:50:45.462Z,98266.86
2019-01-30T11:53:15.191Z,98265.16
2019-01-30T11:55:44.756Z,98265.59
2019-01-30T11:58:14.503Z,98266.59
2019-01-30T12:00:45.724Z,98267.95
2019-01-30T12:03:15.288Z,98263.42
2019-01-30T12:05:45.977Z,98266.74
2019-01-30T12:08:15.679Z,98263.64
2019-01-30T12:10:45.204Z,98265.81
2019-01-30T12:13:14.683Z,98267.03
2019-01-30T12:15:44.240Z,98259.88
2019-01-30T12:18:13.805Z,98258.95
2019-01-30T12:20:43.320Z,98257.22
2019-01-30T12:23:12.988Z,98261.31
2019-01-30T12:25:42.654Z,98254.95
2019-01-30T12:28:12.220Z,98258.83
2019-01-30T12:30:41.751Z,98262.67
2019-01-30T12:33:11.405Z,98263.81
2019-01-30T12:35:40.938Z,98259.88
2019-01-30T12:38:10.627Z,98257.27
2019-01-30T12:40:40.187Z,98258.41
2019-01-30T12:43:09.784Z,98255.46
2019-01-30T12:45:39.625Z,98265.01
2019-01-30T12:48:10.773Z,98257.63
2019-01-30T12:50:40.642Z,98251.15
2019-01-30T12:53:10.168Z,98255.23
2019-01-30T12:55:39.817Z,98260.26
2019-01-30T12:58:09.400Z,98263.36
2019-01-30T13:00:41.549Z,98264.84
2019-01-30T13:03:11.080Z,98264.17
2019-01-30T13:05:40.580Z,98274.20
2019-01-30T13:08:10.210Z,98264.80
2019-01-30T13:10:39.789Z,98272.08
2019-01-30T13:13:09.318Z,98278.82
2019-01-30T13:15:38.901Z,98278.37
2019-01-30T13:18:17.943Z,98273.84
2019-01-30T13:20:39.850Z,98281.81
2019-01-30T13:23:09.519Z,98283.17
2019-01-30T13:25:39.078Z,98280.78
2019-01-30T13:28:08.805Z,98278.86
2019-01-30T13:30:40.007Z,98282.73
2019-01-30T13:33:10.126Z,98286.02
2019-01-30T13:35:39.749Z,98285.45
2019-01-30T13:38:09.284Z,98294.41
2019-01-30T13:40:39.378Z,98295.22
2019-01-30T13:43:09.012Z,98296.81
2019-01-30T13:45:38.608Z,98301.12
2019-01-30T13:48:11.425Z,98306.58
2019-01-30T13:50:40.951Z,98304.40
2019-01-30T13:53:10.599Z,98305.98
2019-01-30T13:55:40.162Z,98308.27
2019-01-30T13:58:09.806Z,98308.27
2019-01-30T14:00:39.554Z,98312.14
2019-01-30T14:03:09.177Z,98315.45
2019-01-30T14:05:38.713Z,98319.55
2019-01-30T14:08:08.900Z,98320.09
2019-01-30T14:10:38.451Z,98321.24
2019-01-30T14:13:08.073Z,98328.06
2019-01-30T14:15:37.711Z,98324.55
2019-01-30T14:18:07.355Z,98328.76
2019-01-30T14:20:36.896Z,98329.90
2019-01-30T14:23:06.576Z,98337.08
2019-01-30T14:25:36.391Z,98334.46
2019-01-30T14:28:06.051Z,98342.64
2019-01-30T14:30:37.138Z,98345.14
2019-01-30T14:33:06.945Z,98349.83
2019-01-30T14:35:37.929Z,98338.47
2019-01-30T14:38:07.570Z,98345.06
2019-01-30T14:40:37.136Z,98344.84
2019-01-30T14:43:06.704Z,98352.80
2019-01-30T14:45:36.349Z,98352.32
2019-01-30T14:48:06.176Z,98360.06
2019-01-30T14:50:35.829Z,98360.75
2019-01-30T14:53:05.469Z,98361.45
2019-01-30T14:55:34.952Z,98378.49
2019-01-30T14:58:06.579Z,98382.72
2019-01-30T15:00:36.180Z,98386.91
2019-01-30T15:03:05.994Z,98383.52
2019-01-30T15:05:35.773Z,98393.75
2019-01-30T15:08:05.507Z,98403.42
2019-01-30T15:10:35.067Z,98407.16
2019-01-30T15:13:05.942Z,98404.31
2019-01-30T15:15:35.531Z,98406.37
2019-01-30T15:18:05.550Z,98410.81
2019-01-30T15:20:37.566Z,98416.59
2019-01-30T15:23:08.230Z,98416.95
2019-01-30T15:25:38.080Z,98418.41
2019-01-30T15:28:07.719Z,98429.45
2019-01-30T15:30:43.641Z,98431.49
2019-01-30T15:33:13.452Z,98435.68
2019-01-30T15:35:43.167Z,98441.03
2019-01-30T15:38:12.936Z,98446.81
2019-01-30T15:40:42.531Z,98449.62
2019-01-30T15:43:12.071Z,98446.00
2019-01-30T15:45:41.634Z,98451.91
2019-01-30T15:48:11.331Z,98452.81
2019-01-30T15:50:42.730Z,98462.70
2019-01-30T15:53:15.043Z,98465.75
2019-01-30T15:55:44.728Z,98470.97
2019-01-30T15:58:14.592Z,98463.16
2019-01-30T16:00:57.460Z,98469.96
2019-01-30T16:03:27.526Z,98473.01
2019-01-30T16:05:57.071Z,98480.95
2019-01-30T16:08:26.584Z,98480.95
2019-01-30T16:10:56.111Z,98481.63
2019-01-30T16:13:25.717Z,98488.20
2019-01-30T16:15:59.339Z,98489.02
2019-01-30T16:18:28.952Z,98487.75
2019-01-30T16:20:58.500Z,98495.37
2019-01-30T16:23:28.217Z,98503.86
2019-01-30T16:25:57.796Z,98502.27
2019-01-30T16:28:27.348Z,98506.13
2019-01-30T16:30:56.807Z,98505.31
2019-01-30T16:33:26.320Z,98502.37
2019-01-30T16:35:56.613Z,98515.20
2019-01-30T16:38:26.197Z,98517.70
2019-01-30T16:40:55.691Z,98515.65
2019-01-30T16:43:25.402Z,98524.59
2019-01-30T16:45:55.044Z,98528.13
2019-01-30T16:48:24.672Z,98530.04
2019-01-30T16:50:56.272Z,98536.06
2019-01-30T16:53:25.972Z,98542.28
2019-01-30T16:55:55.463Z,98535.25
2019-01-30T16:58:25.122Z,98543.65
2019-01-30T17:00:54.662Z,98542.88
2019-01-30T17:03:27.189Z,98542.88
2019-01-30T17:06:06.704Z,98546.73
2019-01-30T17:08:28.180Z,98552.40
2019-01-30T17:11:02.157Z,98562.70
2019-01-30T17:13:31.691Z,98561.93
2019-01-30T17:16:01.167Z,98567.37
2019-01-30T17:18:30.656Z,98566.56
2019-01-30T17:21:00.237Z,98570.09
2019-01-30T17:23:29.763Z,98572.59
2019-01-30T17:25:59.526Z,98575.31
2019-01-30T17:28:28.980Z,98579.16
2019-01-30T17:31:01.894Z,98584.61
2019-01-30T17:33:31.380Z,98588.34
2019-01-30T17:36:01.103Z,98586.20
2019-01-30T17:38:30.597Z,98589.93
2019-01-30T17:41:00.178Z,98588.34
2019-01-30T17:43:29.712Z,98587.56
2019-01-30T17:45:59.341Z,98597.32
2019-01-30T17:48:28.935Z,98598.91
2019-01-30T17:50:58.776Z,98602.99
2019-01-30T17:53:28.347Z,98591.05
2019-01-30T17:56:01.158Z,98606.18
2019-01-30T17:58:35.039Z,98601.28
2019-01-30T18:01:04.708Z,98606.73
2019-01-30T18:03:34.279Z,98612.17
2019-01-30T18:06:03.986Z,98613.77
2019-01-30T18:08:33.618Z,98618.66
2019-01-30T18:11:03.366Z,98620.48
2019-01-30T18:13:32.982Z,98616.17
2019-01-30T18:16:02.620Z,98623.75
2019-01-30T18:18:32.225Z,98623.52
2019-01-30T18:21:02.023Z,98623.30
2019-01-30T18:23:33.007Z,98630.91
2019-01-30T18:26:02.574Z,98625.93
2019-01-30T18:28:32.160Z,98626.16
2019-01-30T18:31:01.659Z,98629.11
2019-01-30T18:33:31.177Z,98630.70
2019-01-30T18:36:00.757Z,98632.75
2019-01-30T18:38:30.429Z,98631.39
2019-01-30T18:40:59.902Z,98637.06
2019-01-30T18:43:29.406Z,98632.75
2019-01-30T18:45:58.945Z,98632.44
2019-01-30T18:48:28.532Z,98640.25
2019-01-30T18:50:58.007Z,98641.84
2019-01-30T18:53:27.488Z,98643.67
2019-01-30T18:55:57.019Z,98638.45
2019-01-30T18:58:26.550Z,98640.05
2019-01-30T19:00:56.071Z,98645.40
2019-01-30T19:03:25.742Z,98643.45
2019-01-30T19:05:55.276Z,98645.05
2019-01-30T19:08:24.827Z,98649.36
2019-01-30T19:10:54.378Z,98641.77
2019-01-30T19:13:24.020Z,98642.78
2019-01-30T19:15:53.584Z,98647.09
2019-01-30T19:18:23.247Z,98647.33
2019-01-30T19:20:52.819Z,98647.00
2019-01-30T19:23:22.367Z,98651.64
2019-01-30T19:25:51.859Z,98652.10
2019-01-30T19:28:21.393Z,98648.25
2019-01-30T19:30:51.123Z,98653.38
2019-01-30T19:33:20.602Z,98648.70
2019-01-30T19:35:52.295Z,98651.66
2019-01-30T19:38:21.516Z,98654.97
2019-01-30T19:40:51.067Z,98649.52
2019-01-30T19:43:20.551Z,98650.56
2019-01-30T19:45:50.029Z,98654.64
2019-01-30T19:48:19.657Z,98657.83
2019-01-30T19:50:49.353Z,98662.70
2019-01-30T19:53:18.837Z,98663.51
2019-01-30T19:55:48.343Z,98662.14
2019-01-30T19:58:17.831Z,98663.73
2019-01-30T20:00:47.551Z,98661.91
2019-01-30T20:03:20.190Z,98664.64
2019-01-30T20:05:49.723Z,98663.92
2019-01-30T20:08:19.423Z,98660.96
2019-01-30T20:10:48.984Z,98661.64
2019-01-30T20:13:18.576Z,98662.54
2019-01-30T20:15:48.212Z,98668.22
2019-01-30T20:18:17.947Z,98673.66
2019-01-30T20:20:47.552Z,98665.27
2019-01-30T20:23:17.157Z,98662.22
2019-01-30T20:25:46.849Z,98668.22
2019-01-30T20:28:16.320Z,98666.85
2019-01-30T20:30:45.843Z,98673.66
2019-01-30T20:33:15.419Z,98675.02
2019-01-30T20:35:44.979Z,98674.02
2019-01-30T20:38:14.462Z,98678.66
2019-01-30T20:40:44.096Z,98684.09
2019-01-30T20:43:13.696Z,98684.68
2019-01-30T20:45:43.224Z,98684.09
2019-01-30T20:48:12.867Z,98693.86
2019-01-30T20:50:42.380Z,98690.91
2019-01-30T20:53:12.024Z,98694.77
2019-01-30T20:55:41.507Z,98698.85
2019-01-30T20:58:11.095Z,98705.42
2019-01-30T21:00:40.810Z,98704.06
2019-01-30T21:03:10.398Z,98703.83
2019-01-30T21:05:39.868Z,98704.97
2019-01-30T21:08:09.437Z,98708.04
2019-01-30T21:10:40.644Z,98703.14
2019-01-30T21:13:10.367Z,98714.03
2019-01-30T21:15:39.976Z,98712.45
2019-01-30T21:18:09.902Z,98713.80
2019-01-30T21:20:39.528Z,98725.59
2019-01-30T21:23:09.095Z,98724.81
2019-01-30T21:25:38.669Z,98731.39
2019-01-30T21:28:08.255Z,98728.98
2019-01-30T21:30:39.187Z,98744.20
2019-01-30T21:33:08.655Z,98738.75
2019-01-30T21:35:38.158Z,98736.61
2019-01-30T21:38:07.959Z,98739.88
2019-01-30T21:40:37.661Z,98744.20
2019-01-30T21:43:07.292Z,98741.70
2019-01-30T21:45:36.900Z,98745.48
2019-01-30T21:48:06.833Z,98739.67
2019-01-30T21:50:36.374Z,98744.00
2019-01-30T21:53:06.175Z,98746.72
2019-01-30T21:55:35.720Z,98751.84
2019-01-30T21:58:05.366Z,98751.03
2019-01-30T22:00:34.975Z,98747.41
2019-01-30T22:03:04.578Z,98739.24
2019-01-30T22:05:34.199Z,98746.52
2019-01-30T22:08:03.842Z,98744.02
2019-01-30T22:10:33.382Z,98743.13
2019-01-30T22:13:02.965Z,98743.13
2019-01-30T22:15:32.428Z,98747.44
2019-01-30T22:18:01.900Z,98751.76
2019-01-30T22:20:31.550Z,98753.70
2019-01-30T22:23:01.103Z,98751.76
2019-01-30T22:25:30.563Z,98755.84
2019-01-30T22:28:00.140Z,98755.30
2019-01-30T22:30:32.763Z,98752.57
2019-01-30T22:33:02.336Z,98765.84
2019-01-30T22:35:31.787Z,98760.39
2019-01-30T22:38:11.516Z,98765.75
2019-01-30T22:40:32.554Z,98761.12
2019-01-30T22:43:02.138Z,98764.30
2019-01-30T22:45:31.601Z,98775.44
2019-01-30T22:48:01.072Z,98772.05
2019-01-30T22:50:30.585Z,98777.95
2019-01-30T22:53:00.039Z,98776.83
2019-01-30T22:55:29.605Z,98779.55
2019-01-30T22:57:59.135Z,98776.83
2019-01-30T23:01:01.926Z,98774.09
2019-01-30T23:03:44.667Z,98778.19
2019-01-30T23:06:36.815Z,98772.62
2019-01-30T23:09:58.871Z,98780.79
2019-01-30T23:12:38.525Z,98780.24
2019-01-30T23:15:24.188Z,98787.28
2019-01-30T23:18:22.240Z,98790.02
2019-01-30T23:20:56.742Z,98796.82
2019-01-30T23:23:42.836Z,98795.23
2019-01-30T23:26:20.063Z,98797.95
2019-01-30T23:29:17.900Z,98790.67
2019-01-30T23:32:17.452Z,98796.91
2019-01-30T23:34:57.466Z,98792.04
2019-01-30T23:37:46.473Z,98798.85
2019-01-30T23:40:50.423Z,98790.45
2019-01-30T23:43:50.012Z,98795.98
2019-01-30T23:47:00.241Z,98796.33
2019-01-30T23:49:55.366Z,98801.55
2019-01-30T23:52:41.350Z,98801.55
2019-01-30T23:55:24.322Z,98803.81
2019-01-30T23:58:17.728Z,98804.48
